sensor_id;sensor_type;location;lat;lon;timestamp;temperature;humidity
1992;DHT22;997;48.448;8.924;2024-03-08T00:00:40;5.10;99.90
1992;DHT22;997;48.448;8.924;2024-03-08T00:03:08;5.10;99.90
1992;DHT22;997;48.448;8.924;2024-03-08T00:05:35;5.00;99.90
1992;DHT22;997;48.448;8.924;2024-03-08T00:08:01;4.90;99.90
1992;DHT22;997;48.448;8.924;2024-03-08T00:10:27;4.80;99.90
1992;DHT22;997;48.448;8.924;2024-03-08T00:12:54;4.80;99.90
1992;DHT22;997;48.448;8.924;2024-03-08T00:15:20;4.80;99.90
1992;DHT22;997;48.448;8.924;2024-03-08T00:17:48;4.80;99.90
1992;DHT22;997;48.448;8.924;2024-03-08T00:20:14;4.80;99.90
1992;DHT22;997;48.448;8.924;2024-03-08T00:22:40;4.80;99.90
1992;DHT22;997;48.448;8.924;2024-03-08T00:25:07;4.70;99.90
1992;DHT22;997;48.448;8.924;2024-03-08T00:27:36;4.70;99.90
1992;DHT22;997;48.448;8.924;2024-03-08T00:30:02;4.70;99.90
1992;DHT22;997;48.448;8.924;2024-03-08T00:32:28;4.70;99.90
1992;DHT22;997;48.448;8.924;2024-03-08T00:34:54;4.70;99.90
1992;DHT22;997;48.448;8.924;2024-03-08T00:37:20;4.60;99.90
1992;DHT22;997;48.448;8.924;2024-03-08T00:39:50;4.60;99.90
1992;DHT22;997;48.448;8.924;2024-03-08T00:42:16;4.40;99.90
1992;DHT22;997;48.448;8.924;2024-03-08T00:44:43;4.30;99.90
1992;DHT22;997;48.448;8.924;2024-03-08T00:47:10;4.20;99.90
1992;DHT22;997;48.448;8.924;2024-03-08T00:49:35;4.30;99.90
1992;DHT22;997;48.448;8.924;2024-03-08T00:52:05;4.30;99.90
1992;DHT22;997;48.448;8.924;2024-03-08T00:54:33;4.10;99.90
1992;DHT22;997;48.448;8.924;2024-03-08T00:56:59;4.00;99.90
1992;DHT22;997;48.448;8.924;2024-03-08T00:59:28;4.00;99.90
1992;DHT22;997;48.448;8.924;2024-03-08T01:01:54;3.80;99.90
1992;DHT22;997;48.448;8.924;2024-03-08T01:04:20;3.70;99.90
1992;DHT22;997;48.448;8.924;2024-03-08T01:06:46;3.60;99.90
1992;DHT22;997;48.448;8.924;2024-03-08T01:09:13;3.50;99.90
1992;DHT22;997;48.448;8.924;2024-03-08T01:11:38;3.40;99.90
1992;DHT22;997;48.448;8.924;2024-03-08T01:14:04;3.40;99.90
1992;DHT22;997;48.448;8.924;2024-03-08T01:16:30;3.40;99.90
1992;DHT22;997;48.448;8.924;2024-03-08T01:18:56;3.50;99.90
1992;DHT22;997;48.448;8.924;2024-03-08T01:21:22;3.50;99.90
1992;DHT22;997;48.448;8.924;2024-03-08T01:23:47;3.50;99.90
1992;DHT22;997;48.448;8.924;2024-03-08T01:26:13;3.40;99.90
1992;DHT22;997;48.448;8.924;2024-03-08T01:28:40;3.40;99.90
1992;DHT22;997;48.448;8.924;2024-03-08T01:31:06;3.40;99.90
1992;DHT22;997;48.448;8.924;2024-03-08T01:33:31;3.50;99.90
1992;DHT22;997;48.448;8.924;2024-03-08T01:35:57;3.40;99.90
1992;DHT22;997;48.448;8.924;2024-03-08T01:38:23;3.30;99.90
1992;DHT22;997;48.448;8.924;2024-03-08T01:40:49;3.40;99.90
1992;DHT22;997;48.448;8.924;2024-03-08T01:43:35;3.50;99.90
1992;DHT22;997;48.448;8.924;2024-03-08T01:46:01;3.60;99.90
1992;DHT22;997;48.448;8.924;2024-03-08T01:48:28;3.70;99.90
1992;DHT22;997;48.448;8.924;2024-03-08T01:50:58;3.80;99.90
1992;DHT22;997;48.448;8.924;2024-03-08T01:53:27;3.60;99.90
1992;DHT22;997;48.448;8.924;2024-03-08T01:55:57;3.40;99.90
1992;DHT22;997;48.448;8.924;2024-03-08T01:58:23;3.50;99.90
1992;DHT22;997;48.448;8.924;2024-03-08T02:00:49;3.50;99.90
1992;DHT22;997;48.448;8.924;2024-03-08T02:03:16;3.60;99.90
1992;DHT22;997;48.448;8.924;2024-03-08T02:05:42;3.50;99.90
1992;DHT22;997;48.448;8.924;2024-03-08T02:08:09;3.40;99.90
1992;DHT22;997;48.448;8.924;2024-03-08T02:10:40;3.40;99.90
1992;DHT22;997;48.448;8.924;2024-03-08T02:13:07;3.30;99.90
1992;DHT22;997;48.448;8.924;2024-03-08T02:15:52;3.20;99.90
1992;DHT22;997;48.448;8.924;2024-03-08T02:18:18;3.30;99.90
1992;DHT22;997;48.448;8.924;2024-03-08T02:20:45;3.40;99.90
1992;DHT22;997;48.448;8.924;2024-03-08T02:23:13;3.40;99.90
1992;DHT22;997;48.448;8.924;2024-03-08T02:25:39;3.50;99.90
1992;DHT22;997;48.448;8.924;2024-03-08T02:28:04;3.50;99.90
1992;DHT22;997;48.448;8.924;2024-03-08T02:30:30;3.60;99.90
1992;DHT22;997;48.448;8.924;2024-03-08T02:32:56;3.60;99.90
1992;DHT22;997;48.448;8.924;2024-03-08T02:35:21;3.70;99.90
1992;DHT22;997;48.448;8.924;2024-03-08T02:37:47;3.70;99.90
1992;DHT22;997;48.448;8.924;2024-03-08T02:40:13;3.50;99.90
1992;DHT22;997;48.448;8.924;2024-03-08T02:42:39;3.50;99.90
1992;DHT22;997;48.448;8.924;2024-03-08T02:45:05;3.40;99.90
1992;DHT22;997;48.448;8.924;2024-03-08T02:47:31;3.40;99.90
1992;DHT22;997;48.448;8.924;2024-03-08T02:49:57;3.30;99.90
1992;DHT22;997;48.448;8.924;2024-03-08T02:52:22;3.10;99.90
1992;DHT22;997;48.448;8.924;2024-03-08T02:54:48;3.00;99.90
1992;DHT22;997;48.448;8.924;2024-03-08T02:57:14;3.00;99.90
1992;DHT22;997;48.448;8.924;2024-03-08T02:59:40;3.00;99.90
1992;DHT22;997;48.448;8.924;2024-03-08T03:02:06;3.00;99.90
1992;DHT22;997;48.448;8.924;2024-03-08T03:04:32;3.10;99.90
1992;DHT22;997;48.448;8.924;2024-03-08T03:07:00;3.20;99.90
1992;DHT22;997;48.448;8.924;2024-03-08T03:09:26;3.30;99.90
1992;DHT22;997;48.448;8.924;2024-03-08T03:11:53;3.50;99.90
1992;DHT22;997;48.448;8.924;2024-03-08T03:14:21;3.50;99.90
1992;DHT22;997;48.448;8.924;2024-03-08T03:16:46;3.50;99.90
1992;DHT22;997;48.448;8.924;2024-03-08T03:19:12;3.70;99.90
1992;DHT22;997;48.448;8.924;2024-03-08T03:21:38;3.70;99.90
1992;DHT22;997;48.448;8.924;2024-03-08T03:24:04;3.80;99.90
1992;DHT22;997;48.448;8.924;2024-03-08T03:26:38;3.70;99.90
1992;DHT22;997;48.448;8.924;2024-03-08T03:29:06;3.60;99.90
1992;DHT22;997;48.448;8.924;2024-03-08T03:31:34;3.60;99.90
1992;DHT22;997;48.448;8.924;2024-03-08T03:34:00;3.50;99.90
1992;DHT22;997;48.448;8.924;2024-03-08T03:36:32;3.30;99.90
1992;DHT22;997;48.448;8.924;2024-03-08T03:38:58;3.10;99.90
1992;DHT22;997;48.448;8.924;2024-03-08T03:41:36;3.00;99.90
1992;DHT22;997;48.448;8.924;2024-03-08T03:44:01;2.90;99.90
1992;DHT22;997;48.448;8.924;2024-03-08T03:46:27;2.80;99.90
1992;DHT22;997;48.448;8.924;2024-03-08T03:48:54;2.90;99.90
1992;DHT22;997;48.448;8.924;2024-03-08T03:51:21;2.90;99.90
1992;DHT22;997;48.448;8.924;2024-03-08T03:53:46;2.90;99.90
1992;DHT22;997;48.448;8.924;2024-03-08T03:56:12;3.00;99.90
1992;DHT22;997;48.448;8.924;2024-03-08T03:58:38;3.00;99.90
1992;DHT22;997;48.448;8.924;2024-03-08T04:01:05;3.00;99.90
1992;DHT22;997;48.448;8.924;2024-03-08T04:03:31;3.10;99.90
1992;DHT22;997;48.448;8.924;2024-03-08T04:05:56;3.10;99.90
1992;DHT22;997;48.448;8.924;2024-03-08T04:08:22;3.00;99.90
1992;DHT22;997;48.448;8.924;2024-03-08T04:10:49;3.00;99.90
1992;DHT22;997;48.448;8.924;2024-03-08T04:13:15;3.00;99.90
1992;DHT22;997;48.448;8.924;2024-03-08T04:15:41;3.10;99.90
1992;DHT22;997;48.448;8.924;2024-03-08T04:18:09;3.10;99.90
1992;DHT22;997;48.448;8.924;2024-03-08T04:20:35;3.20;99.90
1992;DHT22;997;48.448;8.924;2024-03-08T04:23:01;3.10;99.90
1992;DHT22;997;48.448;8.924;2024-03-08T04:25:27;3.20;99.90
1992;DHT22;997;48.448;8.924;2024-03-08T04:27:53;3.20;99.90
1992;DHT22;997;48.448;8.924;2024-03-08T04:30:18;3.30;99.90
1992;DHT22;997;48.448;8.924;2024-03-08T04:32:44;3.20;99.90
1992;DHT22;997;48.448;8.924;2024-03-08T04:35:09;3.20;99.90
1992;DHT22;997;48.448;8.924;2024-03-08T04:37:35;3.20;99.90
1992;DHT22;997;48.448;8.924;2024-03-08T04:40:00;3.30;99.90
1992;DHT22;997;48.448;8.924;2024-03-08T04:42:28;3.30;99.90
1992;DHT22;997;48.448;8.924;2024-03-08T04:44:55;3.40;99.90
1992;DHT22;997;48.448;8.924;2024-03-08T04:47:20;3.50;99.90
1992;DHT22;997;48.448;8.924;2024-03-08T04:49:46;3.60;99.90
1992;DHT22;997;48.448;8.924;2024-03-08T04:52:12;3.50;99.90
1992;DHT22;997;48.448;8.924;2024-03-08T04:54:37;3.40;99.90
1992;DHT22;997;48.448;8.924;2024-03-08T04:57:03;3.60;99.90
1992;DHT22;997;48.448;8.924;2024-03-08T04:59:30;3.80;99.90
1992;DHT22;997;48.448;8.924;2024-03-08T05:01:57;3.80;99.90
1992;DHT22;997;48.448;8.924;2024-03-08T05:04:22;3.80;99.90
1992;DHT22;997;48.448;8.924;2024-03-08T05:06:48;3.90;99.90
1992;DHT22;997;48.448;8.924;2024-03-08T05:09:14;3.90;99.90
1992;DHT22;997;48.448;8.924;2024-03-08T05:11:45;3.80;99.90
1992;DHT22;997;48.448;8.924;2024-03-08T05:14:11;3.80;99.90
1992;DHT22;997;48.448;8.924;2024-03-08T05:16:44;3.90;99.90
1992;DHT22;997;48.448;8.924;2024-03-08T05:19:14;3.80;99.90
1992;DHT22;997;48.448;8.924;2024-03-08T05:21:42;3.90;99.90
1992;DHT22;997;48.448;8.924;2024-03-08T05:24:09;3.80;99.90
1992;DHT22;997;48.448;8.924;2024-03-08T05:26:35;3.60;99.90
1992;DHT22;997;48.448;8.924;2024-03-08T05:29:02;3.60;99.90
1992;DHT22;997;48.448;8.924;2024-03-08T05:31:28;3.60;99.90
1992;DHT22;997;48.448;8.924;2024-03-08T05:33:54;3.60;99.90
1992;DHT22;997;48.448;8.924;2024-03-08T05:36:20;3.50;99.90
1992;DHT22;997;48.448;8.924;2024-03-08T05:38:46;3.60;99.90
1992;DHT22;997;48.448;8.924;2024-03-08T05:41:12;3.80;99.90
1992;DHT22;997;48.448;8.924;2024-03-08T05:43:38;4.00;99.90
1992;DHT22;997;48.448;8.924;2024-03-08T05:46:04;4.10;99.90
1992;DHT22;997;48.448;8.924;2024-03-08T05:48:30;4.10;99.90
1992;DHT22;997;48.448;8.924;2024-03-08T05:50:57;4.10;99.90
1992;DHT22;997;48.448;8.924;2024-03-08T05:53:23;4.20;99.90
1992;DHT22;997;48.448;8.924;2024-03-08T05:55:49;4.20;99.90
1992;DHT22;997;48.448;8.924;2024-03-08T05:58:15;4.10;99.90
1992;DHT22;997;48.448;8.924;2024-03-08T06:00:40;4.00;99.90
1992;DHT22;997;48.448;8.924;2024-03-08T06:03:06;3.90;99.90
1992;DHT22;997;48.448;8.924;2024-03-08T06:05:31;3.90;99.90
1992;DHT22;997;48.448;8.924;2024-03-08T06:07:57;3.90;99.90
1992;DHT22;997;48.448;8.924;2024-03-08T06:10:23;3.90;99.90
1992;DHT22;997;48.448;8.924;2024-03-08T06:12:48;3.90;99.90
1992;DHT22;997;48.448;8.924;2024-03-08T06:15:14;3.90;99.90
1992;DHT22;997;48.448;8.924;2024-03-08T06:17:40;3.80;99.90
1992;DHT22;997;48.448;8.924;2024-03-08T06:20:06;3.80;99.90
1992;DHT22;997;48.448;8.924;2024-03-08T06:22:37;3.60;99.90
1992;DHT22;997;48.448;8.924;2024-03-08T06:25:06;3.50;99.90
1992;DHT22;997;48.448;8.924;2024-03-08T06:27:32;3.50;99.90
1992;DHT22;997;48.448;8.924;2024-03-08T06:29:59;3.50;99.90
1992;DHT22;997;48.448;8.924;2024-03-08T06:32:25;3.40;99.90
1992;DHT22;997;48.448;8.924;2024-03-08T06:34:50;3.50;99.90
1992;DHT22;997;48.448;8.924;2024-03-08T06:37:16;3.50;99.90
1992;DHT22;997;48.448;8.924;2024-03-08T06:39:49;3.50;99.90
1992;DHT22;997;48.448;8.924;2024-03-08T06:42:16;3.50;99.90
1992;DHT22;997;48.448;8.924;2024-03-08T06:44:42;3.50;99.90
1992;DHT22;997;48.448;8.924;2024-03-08T06:47:14;3.60;99.90
1992;DHT22;997;48.448;8.924;2024-03-08T06:49:43;3.70;99.90
1992;DHT22;997;48.448;8.924;2024-03-08T06:52:09;3.70;99.90
1992;DHT22;997;48.448;8.924;2024-03-08T06:54:36;3.80;99.90
1992;DHT22;997;48.448;8.924;2024-03-08T06:57:02;3.90;99.90
1992;DHT22;997;48.448;8.924;2024-03-08T06:59:33;4.00;99.90
1992;DHT22;997;48.448;8.924;2024-03-08T07:02:01;4.20;99.90
1992;DHT22;997;48.448;8.924;2024-03-08T07:04:27;4.20;99.90
1992;DHT22;997;48.448;8.924;2024-03-08T07:06:56;4.20;99.90
1992;DHT22;997;48.448;8.924;2024-03-08T07:09:23;4.20;99.90
1992;DHT22;997;48.448;8.924;2024-03-08T07:11:48;4.20;99.90
1992;DHT22;997;48.448;8.924;2024-03-08T07:14:21;4.20;99.90
1992;DHT22;997;48.448;8.924;2024-03-08T07:16:47;4.20;99.90
1992;DHT22;997;48.448;8.924;2024-03-08T07:19:12;4.10;99.90
1992;DHT22;997;48.448;8.924;2024-03-08T07:21:38;4.20;99.90
1992;DHT22;997;48.448;8.924;2024-03-08T07:24:04;4.10;99.90
1992;DHT22;997;48.448;8.924;2024-03-08T07:26:47;4.10;99.90
1992;DHT22;997;48.448;8.924;2024-03-08T07:29:15;4.00;99.90
1992;DHT22;997;48.448;8.924;2024-03-08T07:31:41;3.90;99.90
1992;DHT22;997;48.448;8.924;2024-03-08T07:34:06;3.80;99.90
1992;DHT22;997;48.448;8.924;2024-03-08T07:36:34;3.80;99.90
1992;DHT22;997;48.448;8.924;2024-03-08T07:39:00;3.80;99.90
1992;DHT22;997;48.448;8.924;2024-03-08T07:41:26;3.80;99.90
1992;DHT22;997;48.448;8.924;2024-03-08T07:43:51;3.80;99.90
1992;DHT22;997;48.448;8.924;2024-03-08T07:46:18;3.80;99.90
1992;DHT22;997;48.448;8.924;2024-03-08T07:48:46;3.80;99.90
1992;DHT22;997;48.448;8.924;2024-03-08T07:51:16;3.80;99.90
1992;DHT22;997;48.448;8.924;2024-03-08T07:53:43;3.80;99.90
1992;DHT22;997;48.448;8.924;2024-03-08T07:56:09;3.90;99.90
1992;DHT22;997;48.448;8.924;2024-03-08T07:58:38;3.90;99.90
1992;DHT22;997;48.448;8.924;2024-03-08T08:01:06;3.90;99.90
1992;DHT22;997;48.448;8.924;2024-03-08T08:03:31;3.90;99.90
1992;DHT22;997;48.448;8.924;2024-03-08T08:05:57;3.90;99.90
1992;DHT22;997;48.448;8.924;2024-03-08T08:08:22;3.80;99.90
1992;DHT22;997;48.448;8.924;2024-03-08T08:10:48;4.00;99.90
1992;DHT22;997;48.448;8.924;2024-03-08T08:13:14;4.00;99.90
1992;DHT22;997;48.448;8.924;2024-03-08T08:15:41;4.00;99.90
1992;DHT22;997;48.448;8.924;2024-03-08T08:18:06;4.10;99.90
1992;DHT22;997;48.448;8.924;2024-03-08T08:20:33;4.00;99.90
1992;DHT22;997;48.448;8.924;2024-03-08T08:22:58;4.10;99.90
1992;DHT22;997;48.448;8.924;2024-03-08T08:25:24;4.20;99.90
1992;DHT22;997;48.448;8.924;2024-03-08T08:27:50;4.20;99.90
1992;DHT22;997;48.448;8.924;2024-03-08T08:30:15;4.30;99.90
1992;DHT22;997;48.448;8.924;2024-03-08T08:32:41;4.50;99.90
1992;DHT22;997;48.448;8.924;2024-03-08T08:35:09;4.50;99.90
1992;DHT22;997;48.448;8.924;2024-03-08T08:37:35;4.50;99.90
1992;DHT22;997;48.448;8.924;2024-03-08T08:40:03;4.40;99.90
1992;DHT22;997;48.448;8.924;2024-03-08T08:42:34;4.30;99.90
1992;DHT22;997;48.448;8.924;2024-03-08T08:45:00;4.20;99.90
1992;DHT22;997;48.448;8.924;2024-03-08T08:47:26;4.00;99.90
1992;DHT22;997;48.448;8.924;2024-03-08T08:49:52;4.00;99.90
1992;DHT22;997;48.448;8.924;2024-03-08T08:52:19;4.00;99.90
1992;DHT22;997;48.448;8.924;2024-03-08T08:54:45;4.20;99.90
1992;DHT22;997;48.448;8.924;2024-03-08T08:57:10;4.30;99.90
1992;DHT22;997;48.448;8.924;2024-03-08T08:59:36;4.50;99.90
1992;DHT22;997;48.448;8.924;2024-03-08T09:02:06;4.60;99.90
1992;DHT22;997;48.448;8.924;2024-03-08T09:04:32;4.70;99.90
1992;DHT22;997;48.448;8.924;2024-03-08T09:06:57;4.70;99.90
1992;DHT22;997;48.448;8.924;2024-03-08T09:09:23;4.70;99.90
1992;DHT22;997;48.448;8.924;2024-03-08T09:11:50;4.80;99.90
1992;DHT22;997;48.448;8.924;2024-03-08T09:14:16;4.90;99.90
1992;DHT22;997;48.448;8.924;2024-03-08T09:16:42;5.00;99.90
1992;DHT22;997;48.448;8.924;2024-03-08T09:19:08;5.10;99.90
1992;DHT22;997;48.448;8.924;2024-03-08T09:21:36;5.10;99.90
1992;DHT22;997;48.448;8.924;2024-03-08T09:24:01;5.10;99.90
1992;DHT22;997;48.448;8.924;2024-03-08T09:26:27;5.20;99.90
1992;DHT22;997;48.448;8.924;2024-03-08T09:28:53;5.00;99.90
1992;DHT22;997;48.448;8.924;2024-03-08T09:31:20;5.00;99.90
1992;DHT22;997;48.448;8.924;2024-03-08T09:33:46;5.10;99.90
1992;DHT22;997;48.448;8.924;2024-03-08T09:36:13;5.20;99.90
1992;DHT22;997;48.448;8.924;2024-03-08T09:38:39;5.30;99.90
1992;DHT22;997;48.448;8.924;2024-03-08T09:41:05;5.10;99.90
1992;DHT22;997;48.448;8.924;2024-03-08T09:43:31;5.00;99.90
1992;DHT22;997;48.448;8.924;2024-03-08T09:45:57;5.10;99.90
1992;DHT22;997;48.448;8.924;2024-03-08T09:48:23;5.20;99.90
1992;DHT22;997;48.448;8.924;2024-03-08T09:50:49;5.20;99.90
1992;DHT22;997;48.448;8.924;2024-03-08T09:53:15;5.20;99.90
1992;DHT22;997;48.448;8.924;2024-03-08T09:55:40;5.20;99.90
1992;DHT22;997;48.448;8.924;2024-03-08T09:58:11;5.40;99.90
1992;DHT22;997;48.448;8.924;2024-03-08T10:00:43;5.50;99.90
1992;DHT22;997;48.448;8.924;2024-03-08T10:03:09;5.70;99.90
1992;DHT22;997;48.448;8.924;2024-03-08T10:05:36;5.90;99.90
1992;DHT22;997;48.448;8.924;2024-03-08T10:08:02;5.80;99.90
1992;DHT22;997;48.448;8.924;2024-03-08T10:10:28;5.80;99.90
1992;DHT22;997;48.448;8.924;2024-03-08T10:12:55;5.70;99.90
1992;DHT22;997;48.448;8.924;2024-03-08T10:15:21;5.40;99.90
1992;DHT22;997;48.448;8.924;2024-03-08T10:17:46;5.30;99.90
1992;DHT22;997;48.448;8.924;2024-03-08T10:20:18;5.30;99.90
1992;DHT22;997;48.448;8.924;2024-03-08T10:22:44;5.40;99.90
1992;DHT22;997;48.448;8.924;2024-03-08T10:25:11;5.50;99.90
1992;DHT22;997;48.448;8.924;2024-03-08T10:27:38;5.60;99.90
1992;DHT22;997;48.448;8.924;2024-03-08T10:30:15;5.70;99.90
1992;DHT22;997;48.448;8.924;2024-03-08T10:32:45;5.70;99.90
1992;DHT22;997;48.448;8.924;2024-03-08T10:35:11;5.70;99.90
1992;DHT22;997;48.448;8.924;2024-03-08T10:37:45;5.70;99.90
1992;DHT22;997;48.448;8.924;2024-03-08T10:40:19;5.90;99.90
1992;DHT22;997;48.448;8.924;2024-03-08T10:42:58;6.10;99.90
1992;DHT22;997;48.448;8.924;2024-03-08T10:45:38;6.20;99.90
1992;DHT22;997;48.448;8.924;2024-03-08T10:48:14;6.30;99.90
1992;DHT22;997;48.448;8.924;2024-03-08T10:50:43;6.40;99.90
1992;DHT22;997;48.448;8.924;2024-03-08T10:53:13;6.50;99.90
1992;DHT22;997;48.448;8.924;2024-03-08T10:55:42;6.70;99.90
1992;DHT22;997;48.448;8.924;2024-03-08T10:58:09;6.80;99.90
1992;DHT22;997;48.448;8.924;2024-03-08T11:00:35;6.80;99.90
1992;DHT22;997;48.448;8.924;2024-03-08T11:03:03;6.90;99.90
1992;DHT22;997;48.448;8.924;2024-03-08T11:05:36;7.00;99.90
1992;DHT22;997;48.448;8.924;2024-03-08T11:08:24;7.10;99.90
1992;DHT22;997;48.448;8.924;2024-03-08T11:10:52;7.00;99.90
1992;DHT22;997;48.448;8.924;2024-03-08T11:13:40;7.10;99.90
1992;DHT22;997;48.448;8.924;2024-03-08T11:21:45;7.50;99.90
1992;DHT22;997;48.448;8.924;2024-03-08T11:24:12;7.50;99.90
1992;DHT22;997;48.448;8.924;2024-03-08T11:26:39;7.40;99.90
1992;DHT22;997;48.448;8.924;2024-03-08T11:29:34;7.40;99.90
1992;DHT22;997;48.448;8.924;2024-03-08T11:32:14;7.50;99.90
1992;DHT22;997;48.448;8.924;2024-03-08T11:34:46;7.60;99.90
1992;DHT22;997;48.448;8.924;2024-03-08T11:37:17;7.70;99.90
1992;DHT22;997;48.448;8.924;2024-03-08T11:39:54;7.60;99.90
1992;DHT22;997;48.448;8.924;2024-03-08T11:42:25;7.60;99.90
1992;DHT22;997;48.448;8.924;2024-03-08T11:44:52;7.50;99.90
1992;DHT22;997;48.448;8.924;2024-03-08T11:47:18;7.60;99.90
1992;DHT22;997;48.448;8.924;2024-03-08T11:49:44;7.70;99.90
1992;DHT22;997;48.448;8.924;2024-03-08T11:52:11;7.80;99.90
1992;DHT22;997;48.448;8.924;2024-03-08T11:54:53;8.00;99.90
1992;DHT22;997;48.448;8.924;2024-03-08T11:57:21;8.10;99.90
1992;DHT22;997;48.448;8.924;2024-03-08T11:59:54;8.10;99.90
1992;DHT22;997;48.448;8.924;2024-03-08T12:02:22;8.10;99.90
1992;DHT22;997;48.448;8.924;2024-03-08T12:04:56;8.30;99.90
1992;DHT22;997;48.448;8.924;2024-03-08T12:07:22;8.30;99.90
1992;DHT22;997;48.448;8.924;2024-03-08T12:12:44;8.50;99.90
1992;DHT22;997;48.448;8.924;2024-03-08T12:15:10;8.50;99.90
1992;DHT22;997;48.448;8.924;2024-03-08T12:17:37;8.60;99.90
1992;DHT22;997;48.448;8.924;2024-03-08T12:20:20;8.80;99.90
1992;DHT22;997;48.448;8.924;2024-03-08T12:22:49;8.90;99.90
1992;DHT22;997;48.448;8.924;2024-03-08T12:25:17;8.80;99.90
1992;DHT22;997;48.448;8.924;2024-03-08T12:27:44;8.90;99.90
1992;DHT22;997;48.448;8.924;2024-03-08T12:30:37;9.00;99.90
1992;DHT22;997;48.448;8.924;2024-03-08T12:33:10;9.10;99.90
1992;DHT22;997;48.448;8.924;2024-03-08T12:35:38;9.20;99.90
1992;DHT22;997;48.448;8.924;2024-03-08T12:38:04;9.20;99.90
1992;DHT22;997;48.448;8.924;2024-03-08T12:40:32;9.30;99.90
1992;DHT22;997;48.448;8.924;2024-03-08T12:43:00;9.50;99.90
1992;DHT22;997;48.448;8.924;2024-03-08T12:45:25;9.60;99.90
1992;DHT22;997;48.448;8.924;2024-03-08T12:47:51;9.60;99.90
1992;DHT22;997;48.448;8.924;2024-03-08T12:50:18;9.60;99.90
1992;DHT22;997;48.448;8.924;2024-03-08T12:52:44;9.60;99.90
1992;DHT22;997;48.448;8.924;2024-03-08T12:55:09;9.70;99.90
1992;DHT22;997;48.448;8.924;2024-03-08T12:57:36;9.70;99.90
1992;DHT22;997;48.448;8.924;2024-03-08T13:00:03;9.90;99.90
1992;DHT22;997;48.448;8.924;2024-03-08T13:02:29;10.00;99.90
1992;DHT22;997;48.448;8.924;2024-03-08T13:04:56;10.00;99.90
1992;DHT22;997;48.448;8.924;2024-03-08T13:07:25;10.10;99.90
1992;DHT22;997;48.448;8.924;2024-03-08T13:09:52;10.00;99.90
1992;DHT22;997;48.448;8.924;2024-03-08T13:12:19;10.10;99.90
1992;DHT22;997;48.448;8.924;2024-03-08T13:14:48;10.10;99.90
1992;DHT22;997;48.448;8.924;2024-03-08T13:17:14;10.20;99.90
1992;DHT22;997;48.448;8.924;2024-03-08T13:19:40;10.40;99.90
1992;DHT22;997;48.448;8.924;2024-03-08T13:22:08;10.50;99.90
1992;DHT22;997;48.448;8.924;2024-03-08T13:24:38;10.60;99.90
1992;DHT22;997;48.448;8.924;2024-03-08T13:27:06;10.70;99.90
1992;DHT22;997;48.448;8.924;2024-03-08T13:29:42;10.70;99.90
1992;DHT22;997;48.448;8.924;2024-03-08T13:32:08;10.80;99.90
1992;DHT22;997;48.448;8.924;2024-03-08T13:34:37;10.80;99.90
1992;DHT22;997;48.448;8.924;2024-03-08T13:37:03;10.90;99.90
1992;DHT22;997;48.448;8.924;2024-03-08T13:39:31;11.00;99.90
1992;DHT22;997;48.448;8.924;2024-03-08T13:42:12;11.20;99.90
1992;DHT22;997;48.448;8.924;2024-03-08T13:44:48;11.40;99.90
1992;DHT22;997;48.448;8.924;2024-03-08T13:47:17;11.60;99.90
1992;DHT22;997;48.448;8.924;2024-03-08T13:49:43;11.70;99.90
1992;DHT22;997;48.448;8.924;2024-03-08T13:52:09;11.80;99.90
1992;DHT22;997;48.448;8.924;2024-03-08T13:54:36;12.00;99.90
1992;DHT22;997;48.448;8.924;2024-03-08T13:57:02;12.10;99.90
1992;DHT22;997;48.448;8.924;2024-03-08T13:59:33;12.20;99.90
1992;DHT22;997;48.448;8.924;2024-03-08T14:02:01;12.30;99.90
1992;DHT22;997;48.448;8.924;2024-03-08T14:04:28;12.40;99.90
1992;DHT22;997;48.448;8.924;2024-03-08T14:06:54;12.50;99.90
1992;DHT22;997;48.448;8.924;2024-03-08T14:09:26;12.60;99.90
1992;DHT22;997;48.448;8.924;2024-03-08T14:11:56;12.70;99.90
1992;DHT22;997;48.448;8.924;2024-03-08T14:14:23;12.70;99.90
1992;DHT22;997;48.448;8.924;2024-03-08T14:16:50;12.60;99.90
1992;DHT22;997;48.448;8.924;2024-03-08T14:19:19;12.60;99.90
1992;DHT22;997;48.448;8.924;2024-03-08T14:21:46;12.80;99.90
1992;DHT22;997;48.448;8.924;2024-03-08T14:24:14;13.20;99.90
1992;DHT22;997;48.448;8.924;2024-03-08T14:26:40;13.50;99.90
1992;DHT22;997;48.448;8.924;2024-03-08T14:29:07;13.80;99.90
1992;DHT22;997;48.448;8.924;2024-03-08T14:31:35;13.90;99.90
1992;DHT22;997;48.448;8.924;2024-03-08T14:34:01;14.10;99.90
1992;DHT22;997;48.448;8.924;2024-03-08T14:36:29;14.20;99.90
1992;DHT22;997;48.448;8.924;2024-03-08T14:38:54;14.40;99.90
1992;DHT22;997;48.448;8.924;2024-03-08T14:41:20;14.70;99.90
1992;DHT22;997;48.448;8.924;2024-03-08T14:43:47;14.90;99.90
1992;DHT22;997;48.448;8.924;2024-03-08T14:46:16;15.00;99.90
1992;DHT22;997;48.448;8.924;2024-03-08T14:48:49;15.00;99.90
1992;DHT22;997;48.448;8.924;2024-03-08T14:51:19;14.80;99.90
1992;DHT22;997;48.448;8.924;2024-03-08T14:53:47;14.80;99.90
1992;DHT22;997;48.448;8.924;2024-03-08T14:56:12;15.10;99.90
1992;DHT22;997;48.448;8.924;2024-03-08T14:58:45;15.20;99.90
1992;DHT22;997;48.448;8.924;2024-03-08T15:01:12;15.20;99.90
1992;DHT22;997;48.448;8.924;2024-03-08T15:03:39;15.10;99.90
1992;DHT22;997;48.448;8.924;2024-03-08T15:06:05;15.10;99.90
1992;DHT22;997;48.448;8.924;2024-03-08T15:08:36;14.80;99.90
1992;DHT22;997;48.448;8.924;2024-03-08T15:11:01;14.50;99.90
1992;DHT22;997;48.448;8.924;2024-03-08T15:13:27;14.40;99.90
1992;DHT22;997;48.448;8.924;2024-03-08T15:16:10;14.50;99.90
1992;DHT22;997;48.448;8.924;2024-03-08T15:18:42;15.00;99.90
1992;DHT22;997;48.448;8.924;2024-03-08T15:21:12;15.70;99.90
1992;DHT22;997;48.448;8.924;2024-03-08T15:23:43;16.30;99.90
1992;DHT22;997;48.448;8.924;2024-03-08T15:26:13;17.10;99.30
1992;DHT22;997;48.448;8.924;2024-03-08T15:28:38;17.90;98.40
1992;DHT22;997;48.448;8.924;2024-03-08T15:31:05;18.30;95.90
1992;DHT22;997;48.448;8.924;2024-03-08T15:33:33;18.50;94.50
1992;DHT22;997;48.448;8.924;2024-03-08T15:35:59;19.00;93.90
1992;DHT22;997;48.448;8.924;2024-03-08T15:38:29;19.00;91.80
1992;DHT22;997;48.448;8.924;2024-03-08T15:40:55;18.30;90.20
1992;DHT22;997;48.448;8.924;2024-03-08T15:43:22;17.80;92.40
1992;DHT22;997;48.448;8.924;2024-03-08T15:45:48;18.20;92.40
1992;DHT22;997;48.448;8.924;2024-03-08T15:48:14;18.10;90.60
1992;DHT22;997;48.448;8.924;2024-03-08T15:50:39;17.90;91.50
1992;DHT22;997;48.448;8.924;2024-03-08T15:53:05;18.20;91.70
1992;DHT22;997;48.448;8.924;2024-03-08T15:55:31;18.50;90.80
1992;DHT22;997;48.448;8.924;2024-03-08T15:57:57;18.30;90.40
1992;DHT22;997;48.448;8.924;2024-03-08T16:00:25;18.50;90.60
1992;DHT22;997;48.448;8.924;2024-03-08T16:03:12;18.90;90.10
1992;DHT22;997;48.448;8.924;2024-03-08T16:05:41;19.70;88.80
1992;DHT22;997;48.448;8.924;2024-03-08T16:08:08;20.00;85.10
1992;DHT22;997;48.448;8.924;2024-03-08T16:10:43;20.10;83.20
1992;DHT22;997;48.448;8.924;2024-03-08T16:13:12;19.50;82.50
1992;DHT22;997;48.448;8.924;2024-03-08T16:15:37;19.00;83.20
1992;DHT22;997;48.448;8.924;2024-03-08T16:18:04;18.90;84.70
1992;DHT22;997;48.448;8.924;2024-03-08T16:20:30;18.50;84.70
1992;DHT22;997;48.448;8.924;2024-03-08T16:22:57;18.20;85.30
1992;DHT22;997;48.448;8.924;2024-03-08T16:25:23;17.80;85.90
1992;DHT22;997;48.448;8.924;2024-03-08T16:27:50;17.30;86.70
1992;DHT22;997;48.448;8.924;2024-03-08T16:30:15;16.70;87.20
1992;DHT22;997;48.448;8.924;2024-03-08T16:32:44;16.20;89.10
1992;DHT22;997;48.448;8.924;2024-03-08T16:35:13;15.60;89.80
1992;DHT22;997;48.448;8.924;2024-03-08T16:37:42;15.00;90.20
1992;DHT22;997;48.448;8.924;2024-03-08T16:40:07;14.30;91.30
1992;DHT22;997;48.448;8.924;2024-03-08T16:42:46;13.80;91.60